Time;durP1;ratioP1;P1;durP2;ratioP2;P2;SDS_P1;SDS_P2;PMS_P1;PMS_P2;Temp;Humidity;BMP_temperature;BMP_pressure;BME280_temperature;BME280_humidity;BME280_pressure;Samples;Min_cycle;Max_cycle;Signal;HPM_P1;HPM_P2
2023/09/02 00:00:43;;;;;;;30.08;17.45;;;;;;;;;;5032943;28;20480;-68
2023/09/02 00:03:09;;;;;;;30.77;18.00;;;;;;;;;;5033467;28;20578;-68
2023/09/02 00:05:34;;;;;;;29.30;17.63;;;;;;;;;;5031738;28;20112;-68
2023/09/02 00:07:59;;;;;;;30.05;17.63;;;;;;;;;;5031455;28;20044;-68
2023/09/02 00:10:24;;;;;;;25.83;16.67;;;;;;;;;;5027847;28;20394;-68
2023/09/02 00:12:50;;;;;;;24.73;15.55;;;;;;;;;;5031487;28;20405;-68
2023/09/02 00:15:16;;;;;;;28.23;15.52;;;;;;;;;;5032488;28;20026;-67
2023/09/02 00:17:41;;;;;;;27.65;16.27;;;;;;;;;;5023200;28;20021;-68
2023/09/02 00:20:08;;;;;;;28.48;17.75;;;;;;;;;;5030277;28;20075;-68
2023/09/02 00:22:33;;;;;;;26.55;17.33;;;;;;;;;;5032322;28;20492;-68
2023/09/02 00:24:59;;;;;;;30.23;17.17;;;;;;;;;;5032501;28;20033;-68
2023/09/02 00:27:24;;;;;;;33.88;17.75;;;;;;;;;;5026004;28;20029;-68
2023/09/02 00:29:49;;;;;;;25.92;16.45;;;;;;;;;;5037129;28;20036;-68
2023/09/02 00:32:15;;;;;;;33.30;17.50;;;;;;;;;;5034833;28;20060;-67
2023/09/02 00:34:40;;;;;;;31.60;17.63;;;;;;;;;;5036172;28;20371;-67
2023/09/02 00:37:05;;;;;;;27.15;16.17;;;;;;;;;;5041981;28;20093;-68
2023/09/02 00:39:31;;;;;;;27.17;16.40;;;;;;;;;;5030743;28;20045;-68
2023/09/02 00:41:57;;;;;;;29.48;18.00;;;;;;;;;;5036825;28;20037;-67
2023/09/02 00:44:23;;;;;;;29.92;18.48;;;;;;;;;;5032137;28;20098;-68
2023/09/02 00:46:48;;;;;;;38.42;21.15;;;;;;;;;;5029214;28;20100;-67
2023/09/02 00:49:14;;;;;;;39.75;24.00;;;;;;;;;;5049445;28;20104;-67
2023/09/02 00:51:39;;;;;;;41.38;23.30;;;;;;;;;;5045741;28;20113;-68
2023/09/02 00:54:04;;;;;;;43.45;23.52;;;;;;;;;;5038611;28;20432;-67
2023/09/02 00:56:31;;;;;;;46.08;26.13;;;;;;;;;;5036147;28;20967;-68
2023/09/02 00:58:57;;;;;;;47.05;26.65;;;;;;;;;;5035833;28;20488;-67
2023/09/02 01:04:26;;;;;;;56.97;27.77;;;;;;;;;;5028843;28;20069;-68
2023/09/02 01:06:52;;;;;;;58.40;28.98;;;;;;;;;;5035126;28;20029;-68
2023/09/02 01:09:17;;;;;;;58.17;28.77;;;;;;;;;;5034593;28;20435;-68
2023/09/02 01:11:42;;;;;;;56.73;29.30;;;;;;;;;;5037860;28;20029;-68
2023/09/02 01:14:08;;;;;;;56.53;27.07;;;;;;;;;;5035030;28;20462;-67
2023/09/02 01:16:34;;;;;;;59.10;29.50;;;;;;;;;;5030366;28;20795;-67
2023/09/02 01:18:59;;;;;;;48.50;25.90;;;;;;;;;;5032247;28;20056;-68
2023/09/02 01:21:27;;;;;;;54.67;26.87;;;;;;;;;;5013758;28;20380;-67
2023/09/02 01:24:04;;;;;;;52.50;27.33;;;;;;;;;;5035338;28;20029;-68
2023/09/02 01:26:48;;;;;;;52.15;27.40;;;;;;;;;;5043054;28;20036;-69
2023/09/02 01:29:18;;;;;;;57.65;28.52;;;;;;;;;;5032850;28;20049;-68
2023/09/02 01:31:44;;;;;;;59.23;29.23;;;;;;;;;;5036235;28;20108;-68
2023/09/02 01:34:11;;;;;;;44.83;25.77;;;;;;;;;;5035286;28;20112;-68
2023/09/02 01:36:36;;;;;;;47.38;24.88;;;;;;;;;;5041889;28;20073;-68
2023/09/02 01:39:02;;;;;;;48.78;26.52;;;;;;;;;;5034955;28;20018;-68
2023/09/02 01:41:28;;;;;;;45.60;25.17;;;;;;;;;;5045629;28;20037;-68
2023/09/02 01:43:54;;;;;;;45.00;25.13;;;;;;;;;;5053617;28;20025;-68
2023/09/02 01:46:20;;;;;;;53.13;27.98;;;;;;;;;;5045425;28;20480;-68
2023/09/02 01:48:45;;;;;;;52.70;27.38;;;;;;;;;;5035607;28;20033;-67
2023/09/02 01:51:11;;;;;;;45.67;26.25;;;;;;;;;;5034326;28;20053;-67
2023/09/02 01:53:37;;;;;;;53.90;27.67;;;;;;;;;;5033860;28;20030;-67
2023/09/02 01:56:02;;;;;;;45.40;27.60;;;;;;;;;;5033506;28;20017;-68
2023/09/02 01:58:27;;;;;;;49.28;26.73;;;;;;;;;;5034075;28;20021;-68
2023/09/02 02:00:53;;;;;;;43.38;23.92;;;;;;;;;;5034510;28;20032;-68
2023/09/02 02:03:25;;;;;;;44.80;24.02;;;;;;;;;;5034274;28;20029;-68
2023/09/02 02:05:52;;;;;;;40.10;23.63;;;;;;;;;;5034298;28;20405;-68
2023/09/02 02:08:29;;;;;;;43.28;24.83;;;;;;;;;;5040236;28;20021;-68
2023/09/02 02:10:57;;;;;;;41.58;24.92;;;;;;;;;;5034066;28;20033;-68
2023/09/02 02:13:23;;;;;;;41.03;25.50;;;;;;;;;;5031218;28;20488;-68
2023/09/02 02:15:48;;;;;;;35.38;22.98;;;;;;;;;;5033913;28;20034;-68
2023/09/02 02:18:13;;;;;;;44.75;24.17;;;;;;;;;;5034053;28;20017;-68
2023/09/02 02:20:44;;;;;;;46.22;25.88;;;;;;;;;;5045508;28;20060;-68
2023/09/02 02:23:09;;;;;;;44.33;26.80;;;;;;;;;;5041524;28;20029;-68
2023/09/02 02:25:34;;;;;;;47.85;26.20;;;;;;;;;;5034135;28;20017;-63
2023/09/02 02:27:59;;;;;;;42.33;26.27;;;;;;;;;;5030121;28;20028;-62
2023/09/02 02:30:25;;;;;;;41.92;25.77;;;;;;;;;;5034289;28;20148;-63
2023/09/02 02:32:50;;;;;;;41.80;24.95;;;;;;;;;;5033463;28;20026;-62
2023/09/02 02:35:19;;;;;;;37.47;23.73;;;;;;;;;;5036086;28;20039;-62
2023/09/02 02:37:45;;;;;;;45.17;25.65;;;;;;;;;;5051868;28;20053;-62
2023/09/02 02:40:10;;;;;;;44.30;25.88;;;;;;;;;;5048318;28;20057;-61
2023/09/02 02:42:35;;;;;;;44.70;26.13;;;;;;;;;;5032813;28;20017;-61
2023/09/02 02:45:00;;;;;;;46.40;27.20;;;;;;;;;;5033317;28;20032;-61
2023/09/02 02:47:26;;;;;;;45.72;27.85;;;;;;;;;;5033690;28;20692;-62
2023/09/02 02:49:51;;;;;;;44.85;27.02;;;;;;;;;;5032220;28;20108;-62
2023/09/02 02:52:16;;;;;;;46.65;27.70;;;;;;;;;;5044273;28;20082;-61
2023/09/02 02:54:41;;;;;;;43.10;26.80;;;;;;;;;;5035467;28;20040;-62
2023/09/02 02:57:07;;;;;;;42.65;26.65;;;;;;;;;;5033166;28;20040;-62
2023/09/02 02:59:32;;;;;;;38.95;26.10;;;;;;;;;;5033959;28;20056;-62
2023/09/02 03:01:57;;;;;;;45.22;25.63;;;;;;;;;;5032883;28;20029;-62
2023/09/02 03:04:23;;;;;;;43.97;25.52;;;;;;;;;;5033147;28;20045;-61
2023/09/02 03:06:48;;;;;;;42.33;25.13;;;;;;;;;;5033227;28;20029;-63
2023/09/02 03:09:14;;;;;;;41.15;26.13;;;;;;;;;;5032458;28;20048;-62
2023/09/02 03:11:39;;;;;;;43.40;27.90;;;;;;;;;;5037302;28;20028;-61
2023/09/02 03:14:05;;;;;;;45.03;27.42;;;;;;;;;;5047947;28;20029;-61
2023/09/02 03:16:30;;;;;;;43.40;26.88;;;;;;;;;;5032243;28;20026;-62
2023/09/02 03:18:55;;;;;;;43.55;27.75;;;;;;;;;;5038402;28;20029;-63
2023/09/02 03:21:20;;;;;;;44.65;27.13;;;;;;;;;;5029161;28;20054;-61
2023/09/02 03:23:46;;;;;;;42.05;26.27;;;;;;;;;;5051196;28;20030;-61
2023/09/02 03:26:12;;;;;;;44.83;27.38;;;;;;;;;;5047131;28;20033;-61
2023/09/02 03:28:37;;;;;;;41.80;26.27;;;;;;;;;;5032730;28;20013;-62
2023/09/02 03:31:03;;;;;;;42.53;26.77;;;;;;;;;;5032315;28;20504;-61
2023/09/02 03:33:28;;;;;;;41.75;25.75;;;;;;;;;;5030938;28;20029;-62
2023/09/02 03:35:54;;;;;;;45.58;25.98;;;;;;;;;;5030283;28;20017;-63
2023/09/02 03:38:19;;;;;;;44.45;26.77;;;;;;;;;;5032250;28;20108;-63
2023/09/02 03:40:44;;;;;;;38.70;25.25;;;;;;;;;;5032750;28;20040;-61
2023/09/02 03:43:09;;;;;;;39.05;25.65;;;;;;;;;;5049435;28;20338;-61
2023/09/02 03:45:36;;;;;;;41.88;25.33;;;;;;;;;;5033377;28;20414;-62
2023/09/02 03:48:01;;;;;;;42.47;25.83;;;;;;;;;;5032649;28;20030;-60
2023/09/02 03:50:26;;;;;;;40.22;25.17;;;;;;;;;;5032540;28;20091;-61
2023/09/02 03:52:52;;;;;;;42.45;26.08;;;;;;;;;;5032204;28;20022;-61
2023/09/02 03:55:17;;;;;;;43.58;26.90;;;;;;;;;;5034960;28;20455;-62
2023/09/02 03:57:42;;;;;;;46.65;26.38;;;;;;;;;;5031423;28;20030;-61
2023/09/02 04:00:08;;;;;;;46.25;27.75;;;;;;;;;;5029730;28;20097;-61
2023/09/02 04:02:33;;;;;;;41.95;25.58;;;;;;;;;;5043133;28;20024;-61
2023/09/02 04:04:58;;;;;;;41.40;25.92;;;;;;;;;;5042880;28;20423;-62
2023/09/02 04:07:23;;;;;;;39.45;25.45;;;;;;;;;;5050906;28;20611;-62
2023/09/02 04:09:49;;;;;;;37.00;24.98;;;;;;;;;;5050796;28;20108;-61
2023/09/02 04:12:14;;;;;;;43.33;25.85;;;;;;;;;;5036989;28;20118;-62
2023/09/02 04:14:39;;;;;;;41.80;26.40;;;;;;;;;;5049880;28;20035;-63
2023/09/02 04:17:04;;;;;;;42.97;27.52;;;;;;;;;;5031758;28;20018;-63
2023/09/02 04:19:29;;;;;;;47.80;27.45;;;;;;;;;;5035379;28;20033;-63
2023/09/02 04:21:55;;;;;;;49.47;28.05;;;;;;;;;;5035284;28;20026;-61
2023/09/02 04:24:20;;;;;;;45.00;26.95;;;;;;;;;;5031992;28;20477;-63
2023/09/02 04:26:46;;;;;;;44.42;28.08;;;;;;;;;;5031871;28;20398;-62
2023/09/02 04:29:11;;;;;;;46.17;26.13;;;;;;;;;;5032470;28;20127;-63
2023/09/02 04:31:36;;;;;;;42.58;25.35;;;;;;;;;;5029483;28;20025;-61
2023/09/02 04:34:02;;;;;;;38.50;24.55;;;;;;;;;;5033738;28;20228;-61
2023/09/02 04:36:27;;;;;;;38.42;24.05;;;;;;;;;;5028935;28;20061;-61
2023/09/02 04:38:52;;;;;;;40.53;24.25;;;;;;;;;;5034876;28;20057;-62
2023/09/02 04:41:18;;;;;;;39.03;24.33;;;;;;;;;;5031249;28;20064;-61
2023/09/02 04:43:43;;;;;;;42.63;25.67;;;;;;;;;;5044975;28;20025;-68
2023/09/02 04:46:08;;;;;;;38.63;24.38;;;;;;;;;;5039962;28;20100;-69
2023/09/02 04:48:33;;;;;;;38.45;24.98;;;;;;;;;;5031837;28;20041;-68
2023/09/02 04:50:59;;;;;;;40.15;25.40;;;;;;;;;;5031622;28;20390;-68
2023/09/02 04:53:24;;;;;;;43.10;24.90;;;;;;;;;;5031872;28;20029;-68
2023/09/02 04:55:50;;;;;;;41.08;23.02;;;;;;;;;;5032345;28;20028;-69
2023/09/02 04:58:16;;;;;;;35.75;22.95;;;;;;;;;;5035335;28;20009;-68
2023/09/02 05:00:41;;;;;;;37.47;23.88;;;;;;;;;;5034066;28;20022;-67
2023/09/02 05:03:08;;;;;;;36.97;22.67;;;;;;;;;;5042070;28;20033;-68
2023/09/02 05:05:33;;;;;;;35.90;22.65;;;;;;;;;;5030815;28;20053;-68
2023/09/02 05:07:59;;;;;;;36.05;22.90;;;;;;;;;;5042352;28;20116;-68
2023/09/02 05:10:24;;;;;;;36.97;22.92;;;;;;;;;;5039583;28;20049;-68
2023/09/02 05:12:49;;;;;;;35.13;23.30;;;;;;;;;;5032417;28;20021;-68
2023/09/02 05:15:15;;;;;;;33.80;22.05;;;;;;;;;;5036576;28;20048;-68
2023/09/02 05:17:40;;;;;;;35.17;22.25;;;;;;;;;;5045574;28;20056;-68
2023/09/02 05:20:05;;;;;;;34.45;22.85;;;;;;;;;;5034485;28;20075;-67
2023/09/02 05:22:31;;;;;;;35.53;22.80;;;;;;;;;;5030347;28;20013;-68
2023/09/02 05:24:56;;;;;;;36.95;21.55;;;;;;;;;;5036848;28;20021;-68
2023/09/02 05:27:22;;;;;;;30.52;20.17;;;;;;;;;;5039411;28;20033;-68
2023/09/02 05:29:48;;;;;;;28.58;20.33;;;;;;;;;;5040740;28;20030;-68
2023/09/02 05:32:13;;;;;;;31.65;20.38;;;;;;;;;;5031833;28;20372;-68
2023/09/02 05:34:39;;;;;;;30.75;19.15;;;;;;;;;;5053969;28;20374;-68
2023/09/02 05:37:04;;;;;;;34.70;19.73;;;;;;;;;;5045370;28;20025;-67
2023/09/02 05:39:29;;;;;;;30.23;19.02;;;;;;;;;;5041200;28;20017;-68
2023/09/02 05:41:54;;;;;;;29.63;17.52;;;;;;;;;;5043104;28;20423;-68
2023/09/02 05:44:20;;;;;;;28.00;17.15;;;;;;;;;;5033151;28;20029;-68
2023/09/02 05:46:45;;;;;;;26.08;17.30;;;;;;;;;;5050852;28;20025;-69
2023/09/02 05:49:11;;;;;;;25.25;16.92;;;;;;;;;;5047329;28;20021;-68
2023/09/02 05:51:36;;;;;;;24.02;15.55;;;;;;;;;;5034855;28;20380;-68
2023/09/02 05:54:01;;;;;;;24.73;15.20;;;;;;;;;;5034765;28;20029;-68
2023/09/02 05:56:27;;;;;;;24.40;14.68;;;;;;;;;;5030832;28;20014;-68
2023/09/02 05:58:52;;;;;;;23.27;15.02;;;;;;;;;;5040293;28;20106;-69
2023/09/02 06:01:17;;;;;;;21.15;15.52;;;;;;;;;;5050729;28;20010;-69
2023/09/02 06:03:42;;;;;;;24.85;15.85;;;;;;;;;;5046547;28;20091;-69
2023/09/02 06:06:16;;;;;;;24.48;15.90;;;;;;;;;;5049022;28;20040;-68
2023/09/02 06:08:42;;;;;;;24.45;15.13;;;;;;;;;;5028143;28;20083;-69
2023/09/02 06:11:07;;;;;;;22.63;15.45;;;;;;;;;;5035212;28;20029;-68
2023/09/02 06:13:32;;;;;;;29.73;16.80;;;;;;;;;;5038416;28;20025;-68
2023/09/02 06:15:58;;;;;;;26.98;15.85;;;;;;;;;;5045519;28;20042;-68
2023/09/02 06:18:23;;;;;;;23.95;14.50;;;;;;;;;;5036150;28;20032;-68
2023/09/02 06:20:49;;;;;;;21.45;14.45;;;;;;;;;;5031533;28;20030;-68
2023/09/02 06:23:14;;;;;;;22.85;14.27;;;;;;;;;;5041078;28;20100;-68
2023/09/02 06:25:39;;;;;;;19.75;13.75;;;;;;;;;;5033537;28;20036;-68
2023/09/02 06:28:04;;;;;;;19.55;13.40;;;;;;;;;;5037700;28;20471;-68
2023/09/02 06:30:30;;;;;;;20.08;13.23;;;;;;;;;;5032871;28;20393;-68
2023/09/02 06:32:55;;;;;;;18.92;12.15;;;;;;;;;;5032979;28;20374;-68
2023/09/02 06:35:20;;;;;;;19.05;12.60;;;;;;;;;;5033367;28;20017;-69
2023/09/02 06:37:45;;;;;;;15.55;11.73;;;;;;;;;;5033366;28;20032;-68
2023/09/02 06:40:11;;;;;;;20.00;12.13;;;;;;;;;;5039788;28;20017;-68
2023/09/02 06:42:36;;;;;;;19.48;12.85;;;;;;;;;;5042046;28;20021;-68
2023/09/02 06:45:02;;;;;;;16.73;11.60;;;;;;;;;;5032713;28;20043;-69
2023/09/02 06:47:27;;;;;;;17.05;11.02;;;;;;;;;;5047999;28;20109;-69
2023/09/02 06:49:53;;;;;;;18.85;11.23;;;;;;;;;;5052237;28;20056;-70
2023/09/02 06:52:18;;;;;;;16.80;11.15;;;;;;;;;;5051368;28;20048;-67
2023/09/02 06:54:46;;;;;;;19.15;11.13;;;;;;;;;;5051832;28;20017;-67
2023/09/02 06:57:11;;;;;;;19.63;11.32;;;;;;;;;;5051745;28;20104;-67
2023/09/02 06:59:37;;;;;;;18.40;10.90;;;;;;;;;;5051407;28;20088;-67
2023/09/02 07:02:02;;;;;;;16.08;11.00;;;;;;;;;;5047845;28;20100;-67
2023/09/02 07:04:27;;;;;;;20.88;11.00;;;;;;;;;;4982939;28;1437724;-60
2023/09/02 07:06:53;;;;;;;18.95;10.23;;;;;;;;;;5033689;28;20566;-60
2023/09/02 07:09:18;;;;;;;18.35;9.20;;;;;;;;;;5034815;28;20408;-60
2023/09/02 07:11:43;;;;;;;19.80;9.98;;;;;;;;;;5037672;28;20094;-59
2023/09/02 07:14:08;;;;;;;13.18;8.63;;;;;;;;;;5031793;28;20029;-60
2023/09/02 07:16:34;;;;;;;14.05;9.32;;;;;;;;;;5031958;28;20009;-60
2023/09/02 07:19:02;;;;;;;15.55;8.60;;;;;;;;;;5028459;28;20036;-60
2023/09/02 07:21:28;;;;;;;12.57;7.45;;;;;;;;;;5040267;28;20021;-59
2023/09/02 07:23:53;;;;;;;13.48;8.10;;;;;;;;;;5033472;28;20028;-59
2023/09/02 07:26:18;;;;;;;12.63;7.78;;;;;;;;;;5047754;28;20020;-61
2023/09/02 07:28:43;;;;;;;10.60;7.18;;;;;;;;;;5052126;28;20025;-61
2023/09/02 07:31:09;;;;;;;12.82;7.70;;;;;;;;;;5051509;28;20024;-61
2023/09/02 07:33:34;;;;;;;14.13;8.80;;;;;;;;;;5051351;28;20017;-61
2023/09/02 07:36:06;;;;;;;13.02;8.20;;;;;;;;;;5051706;28;20017;-61
2023/09/02 07:38:31;;;;;;;15.68;7.38;;;;;;;;;;5033732;28;20112;-61
2023/09/02 07:40:57;;;;;;;12.27;7.13;;;;;;;;;;5033079;28;20497;-62
2023/09/02 07:43:22;;;;;;;12.93;6.70;;;;;;;;;;5033108;28;20013;-62
2023/09/02 07:45:48;;;;;;;11.13;6.82;;;;;;;;;;5032976;28;20017;-62
2023/09/02 07:48:13;;;;;;;15.18;7.38;;;;;;;;;;5031848;28;20416;-63
2023/09/02 07:50:38;;;;;;;13.10;7.47;;;;;;;;;;5037926;28;20026;-63
2023/09/02 07:53:03;;;;;;;13.55;8.68;;;;;;;;;;5032545;28;20013;-62
2023/09/02 07:55:29;;;;;;;15.85;8.90;;;;;;;;;;5045897;28;20028;-62
2023/09/02 07:57:54;;;;;;;14.45;8.15;;;;;;;;;;5049304;28;20032;-63
2023/09/02 08:00:19;;;;;;;13.73;8.23;;;;;;;;;;5031286;28;20022;-62
2023/09/02 08:02:44;;;;;;;13.35;7.82;;;;;;;;;;5032738;28;20025;-62
2023/09/02 08:05:10;;;;;;;18.50;8.35;;;;;;;;;;5032336;28;20421;-62
2023/09/02 08:07:36;;;;;;;14.45;7.88;;;;;;;;;;5036215;28;20021;-62
2023/09/02 08:10:01;;;;;;;15.27;7.95;;;;;;;;;;5050870;28;20025;-62
2023/09/02 08:12:26;;;;;;;15.55;8.05;;;;;;;;;;5046788;28;20080;-62
2023/09/02 08:14:51;;;;;;;15.80;8.05;;;;;;;;;;5031517;28;20025;-63
2023/09/02 08:17:19;;;;;;;14.80;8.35;;;;;;;;;;5035897;28;20432;-62
2023/09/02 08:19:44;;;;;;;13.20;7.85;;;;;;;;;;5031013;28;20447;-63
2023/09/02 08:22:09;;;;;;;12.52;7.68;;;;;;;;;;5032296;28;20018;-62
2023/09/02 08:24:35;;;;;;;13.10;8.38;;;;;;;;;;5032271;28;20393;-61
2023/09/02 08:27:00;;;;;;;12.35;8.18;;;;;;;;;;5033876;28;20100;-62
2023/09/02 08:29:25;;;;;;;13.57;8.00;;;;;;;;;;5040512;28;20049;-62
2023/09/02 08:31:54;;;;;;;13.68;8.77;;;;;;;;;;5035816;28;20017;-62
2023/09/02 08:34:20;;;;;;;14.60;8.13;;;;;;;;;;5046842;28;20079;-62
2023/09/02 08:36:45;;;;;;;14.63;9.45;;;;;;;;;;5035192;28;20053;-64
2023/09/02 08:39:10;;;;;;;14.73;8.98;;;;;;;;;;5035447;28;20049;-63
2023/09/02 08:41:35;;;;;;;16.67;9.77;;;;;;;;;;5035891;28;20014;-63
2023/09/02 08:44:01;;;;;;;13.65;8.52;;;;;;;;;;5032336;28;20376;-62
2023/09/02 08:46:27;;;;;;;16.90;9.02;;;;;;;;;;5032449;28;20411;-62
2023/09/02 08:48:54;;;;;;;12.88;8.50;;;;;;;;;;5031915;28;20028;-62
2023/09/02 08:51:20;;;;;;;14.43;8.75;;;;;;;;;;5033759;28;20030;-63
2023/09/02 08:53:46;;;;;;;14.93;9.48;;;;;;;;;;5035775;28;20444;-62
2023/09/02 08:56:11;;;;;;;13.55;8.70;;;;;;;;;;5036193;28;20092;-63
2023/09/02 08:58:38;;;;;;;12.55;8.43;;;;;;;;;;5036431;28;20061;-62
2023/09/02 09:01:04;;;;;;;13.55;8.95;;;;;;;;;;5035510;28;20457;-62
2023/09/02 09:03:29;;;;;;;15.63;9.60;;;;;;;;;;5042272;28;20159;-62
2023/09/02 09:05:55;;;;;;;15.07;9.07;;;;;;;;;;5038128;28;20063;-62
2023/09/02 09:08:22;;;;;;;14.32;9.50;;;;;;;;;;5042713;28;20017;-63
2023/09/02 09:10:48;;;;;;;15.77;9.02;;;;;;;;;;5040158;28;20049;-62
2023/09/02 09:13:16;;;;;;;16.25;9.65;;;;;;;;;;5054386;28;20090;-63
2023/09/02 09:15:41;;;;;;;16.52;9.77;;;;;;;;;;5042666;28;20083;-62
2023/09/02 09:18:08;;;;;;;14.93;9.23;;;;;;;;;;5032954;28;20100;-62
2023/09/02 09:20:34;;;;;;;13.60;9.13;;;;;;;;;;5032102;28;20022;-65
2023/09/02 09:22:59;;;;;;;13.57;9.35;;;;;;;;;;5035983;28;20028;-63
2023/09/02 09:25:24;;;;;;;13.77;9.38;;;;;;;;;;5031952;28;20021;-61
2023/09/02 09:27:50;;;;;;;13.65;9.00;;;;;;;;;;5035136;28;20022;-62
2023/09/02 09:30:28;;;;;;;17.75;10.27;;;;;;;;;;5033749;28;20029;-62
2023/09/02 09:32:58;;;;;;;16.90;10.40;;;;;;;;;;5038750;28;20473;-63
2023/09/02 09:35:24;;;;;;;21.88;13.50;;;;;;;;;;5035186;28;20021;-61
2023/09/02 09:37:53;;;;;;;14.18;9.80;;;;;;;;;;5054049;28;20039;-62
2023/09/02 09:40:29;;;;;;;16.63;9.38;;;;;;;;;;5053931;28;20024;-63
2023/09/02 09:42:55;;;;;;;12.55;8.85;;;;;;;;;;5053140;28;20017;-62
2023/09/02 09:45:20;;;;;;;14.75;9.43;;;;;;;;;;5053721;28;20040;-63
2023/09/02 09:47:45;;;;;;;15.05;8.25;;;;;;;;;;5054122;28;20092;-62
2023/09/02 09:50:14;;;;;;;14.38;8.25;;;;;;;;;;5034538;28;20022;-63
2023/09/02 09:52:40;;;;;;;12.52;8.07;;;;;;;;;;5043390;28;20033;-63
2023/09/02 09:55:05;;;;;;;14.25;7.45;;;;;;;;;;5035319;28;20461;-63
2023/09/02 09:57:30;;;;;;;14.75;7.40;;;;;;;;;;5045122;28;20032;-64
2023/09/02 09:59:56;;;;;;;12.77;7.22;;;;;;;;;;5037357;28;20370;-63
2023/09/02 10:02:22;;;;;;;13.10;7.68;;;;;;;;;;5034057;28;20018;-63
2023/09/02 10:04:55;;;;;;;11.32;6.85;;;;;;;;;;5036769;28;20036;-63
2023/09/02 10:07:27;;;;;;;14.15;7.22;;;;;;;;;;5035052;28;20033;-62
2023/09/02 10:09:53;;;;;;;14.05;7.47;;;;;;;;;;5034132;28;20021;-63
2023/09/02 10:12:19;;;;;;;13.85;7.20;;;;;;;;;;5034564;28;20045;-62
2023/09/02 10:14:47;;;;;;;10.30;6.72;;;;;;;;;;5034582;28;20060;-64
2023/09/02 10:17:13;;;;;;;11.82;6.80;;;;;;;;;;5031017;28;20017;-63
2023/09/02 10:19:39;;;;;;;13.43;7.07;;;;;;;;;;5034416;28;20032;-63
2023/09/02 10:22:05;;;;;;;11.15;5.78;;;;;;;;;;5034211;28;20017;-63
2023/09/02 10:24:32;;;;;;;11.10;5.60;;;;;;;;;;5033873;28;20022;-63
2023/09/02 10:26:58;;;;;;;11.00;5.72;;;;;;;;;;5033383;28;20690;-63
2023/09/02 10:29:26;;;;;;;9.88;5.05;;;;;;;;;;5032961;28;20405;-64
2023/09/02 10:31:52;;;;;;;9.82;5.72;;;;;;;;;;5031963;28;20156;-62
2023/09/02 10:34:29;;;;;;;10.50;5.28;;;;;;;;;;5034447;28;20333;-68
2023/09/02 10:36:56;;;;;;;11.60;5.50;;;;;;;;;;5033077;28;20027;-67
2023/09/02 10:39:30;;;;;;;7.93;4.60;;;;;;;;;;5034191;28;20017;-68
2023/09/02 10:41:56;;;;;;;9.65;4.65;;;;;;;;;;5049922;28;20052;-69
2023/09/02 10:44:22;;;;;;;11.27;4.80;;;;;;;;;;5058339;28;20041;-67
2023/09/02 10:46:48;;;;;;;10.55;5.32;;;;;;;;;;5058783;28;20104;-67
2023/09/02 10:49:13;;;;;;;12.40;5.70;;;;;;;;;;5058789;28;20061;-67
2023/09/02 10:51:40;;;;;;;10.38;4.80;;;;;;;;;;5065716;28;20043;-69
2023/09/02 10:54:06;;;;;;;9.68;5.90;;;;;;;;;;5076886;28;20041;-68
2023/09/02 10:56:32;;;;;;;25.35;7.47;;;;;;;;;;5077565;28;20035;-67
2023/09/02 10:58:58;;;;;;;10.38;5.88;;;;;;;;;;5063160;28;20044;-69
2023/09/02 11:01:24;;;;;;;13.70;6.20;;;;;;;;;;5058443;28;20060;-68
2023/09/02 11:03:54;;;;;;;12.48;5.88;;;;;;;;;;5056341;28;20045;-67
2023/09/02 11:06:19;;;;;;;10.20;5.65;;;;;;;;;;5068824;28;20089;-69
2023/09/02 11:08:49;;;;;;;13.20;6.60;;;;;;;;;;5061429;28;20006;-67
2023/09/02 11:11:14;;;;;;;16.75;6.68;;;;;;;;;;5054416;28;20017;-66
2023/09/02 11:13:58;;;;;;;13.38;6.50;;;;;;;;;;5041866;28;20080;-66
2023/09/02 11:16:23;;;;;;;10.50;6.18;;;;;;;;;;5031460;28;20481;-66
2023/09/02 11:18:48;;;;;;;12.57;5.88;;;;;;;;;;5034690;28;20024;-67
2023/09/02 11:21:32;;;;;;;13.50;7.22;;;;;;;;;;5034228;28;20404;-66
2023/09/02 11:24:16;;;;;;;10.65;5.60;;;;;;;;;;5034607;28;20056;-66
2023/09/02 11:26:57;;;;;;;10.52;5.43;;;;;;;;;;5033578;28;20483;-67
2023/09/02 11:29:26;;;;;;;11.02;5.20;;;;;;;;;;5033947;28;20025;-66
2023/09/02 11:31:56;;;;;;;11.65;5.10;;;;;;;;;;5033917;28;20022;-68
2023/09/02 11:34:21;;;;;;;9.32;5.20;;;;;;;;;;5034059;28;20379;-67
2023/09/02 11:36:47;;;;;;;12.43;5.88;;;;;;;;;;5034022;28;20100;-65
2023/09/02 11:39:12;;;;;;;12.32;5.55;;;;;;;;;;5033883;28;20009;-66
2023/09/02 11:41:38;;;;;;;13.50;5.55;;;;;;;;;;5033850;28;20120;-66
2023/09/02 11:44:12;;;;;;;9.82;4.93;;;;;;;;;;5033780;28;20432;-66
2023/09/02 11:46:39;;;;;;;14.13;6.63;;;;;;;;;;5033206;28;20017;-65
2023/09/02 11:49:10;;;;;;;9.10;5.30;;;;;;;;;;5033147;28;20402;-66
2023/09/02 11:51:35;;;;;;;10.88;5.35;;;;;;;;;;5033355;28;20410;-66
2023/09/02 11:54:00;;;;;;;11.43;5.95;;;;;;;;;;5034192;28;20060;-66
2023/09/02 11:56:26;;;;;;;11.93;5.97;;;;;;;;;;5033768;28;20013;-65
2023/09/02 11:58:51;;;;;;;10.85;5.60;;;;;;;;;;5033833;28;20029;-66
2023/09/02 12:01:16;;;;;;;13.82;6.20;;;;;;;;;;5040237;28;20017;-66
2023/09/02 12:03:42;;;;;;;11.23;6.10;;;;;;;;;;5051945;28;20016;-66
2023/09/02 12:06:08;;;;;;;12.70;5.82;;;;;;;;;;5051835;28;20048;-66
2023/09/02 12:08:34;;;;;;;13.25;6.13;;;;;;;;;;5051760;28;20024;-66
2023/09/02 12:11:03;;;;;;;9.52;5.22;;;;;;;;;;5046972;28;20028;-66
2023/09/02 12:13:29;;;;;;;12.02;4.97;;;;;;;;;;5023796;28;20026;-66
2023/09/02 12:15:54;;;;;;;9.10;5.25;;;;;;;;;;5028747;28;20022;-66
2023/09/02 12:18:20;;;;;;;13.40;5.15;;;;;;;;;;5030139;28;20112;-66
2023/09/02 12:20:46;;;;;;;11.20;5.10;;;;;;;;;;5027704;28;20022;-67
2023/09/02 12:23:11;;;;;;;7.90;4.68;;;;;;;;;;5035997;28;20040;-67
2023/09/02 12:25:38;;;;;;;9.77;5.07;;;;;;;;;;5037561;28;20022;-66
2023/09/02 12:28:11;;;;;;;10.60;5.07;;;;;;;;;;5030969;28;20029;-67
2023/09/02 12:30:36;;;;;;;10.60;5.00;;;;;;;;;;5032643;28;20071;-69
2023/09/02 12:33:02;;;;;;;11.68;5.40;;;;;;;;;;5033027;28;20427;-67
2023/09/02 12:35:28;;;;;;;9.35;5.38;;;;;;;;;;5031954;28;20022;-67
2023/09/02 12:38:00;;;;;;;11.82;4.78;;;;;;;;;;5032732;28;20021;-66
2023/09/02 12:40:26;;;;;;;13.27;5.60;;;;;;;;;;5032624;28;20028;-67
2023/09/02 12:42:54;;;;;;;11.57;5.93;;;;;;;;;;5032880;28;20023;-68
2023/09/02 12:45:45;;;;;;;12.27;5.75;;;;;;;;;;5038594;28;20047;-66
2023/09/02 12:48:11;;;;;;;;;;;;;;;;;;5047673;28;20032;-67
2023/09/02 12:50:36;;;;;;;15.80;6.38;;;;;;;;;;5051305;28;19913;-67
2023/09/02 12:53:01;;;;;;;11.75;5.88;;;;;;;;;;5051159;28;20388;-67
2023/09/02 12:55:27;;;;;;;12.90;5.65;;;;;;;;;;5050916;28;20031;-62
2023/09/02 12:57:52;;;;;;;11.77;5.68;;;;;;;;;;5050811;28;20606;-61
2023/09/02 13:00:18;;;;;;;11.95;5.93;;;;;;;;;;5050733;28;20024;-62
2023/09/02 13:02:45;;;;;;;9.38;5.35;;;;;;;;;;5033048;28;20025;-62
2023/09/02 13:05:10;;;;;;;10.00;5.43;;;;;;;;;;5039391;28;20447;-62
2023/09/02 13:07:35;;;;;;;9.27;5.15;;;;;;;;;;5038198;28;20121;-61
2023/09/02 13:10:01;;;;;;;10.23;5.53;;;;;;;;;;5040700;28;20030;-60
2023/09/02 13:12:26;;;;;;;12.10;5.55;;;;;;;;;;5038914;28;20040;-61
2023/09/02 13:14:52;;;;;;;11.57;6.32;;;;;;;;;;5030914;28;20028;-61
2023/09/02 13:17:18;;;;;;;11.45;6.30;;;;;;;;;;5029384;28;20030;-63
2023/09/02 13:19:46;;;;;;;12.00;6.72;;;;;;;;;;5033580;28;20030;-61
2023/09/02 13:22:12;;;;;;;11.75;6.13;;;;;;;;;;5034161;28;20023;-62
2023/09/02 13:24:37;;;;;;;11.20;6.45;;;;;;;;;;5049220;28;20025;-62
2023/09/02 13:27:03;;;;;;;12.40;6.40;;;;;;;;;;5040128;28;20486;-61
2023/09/02 13:29:28;;;;;;;10.82;7.05;;;;;;;;;;5037663;28;20052;-62
2023/09/02 13:31:55;;;;;;;11.93;6.57;;;;;;;;;;5041367;28;20107;-62
2023/09/02 13:34:30;;;;;;;9.50;5.57;;;;;;;;;;5053927;28;20112;-61
2023/09/02 13:37:14;;;;;;;7.68;4.38;;;;;;;;;;5053733;28;20043;-61
2023/09/02 13:39:40;;;;;;;7.03;3.90;;;;;;;;;;5043799;28;20620;-61
2023/09/02 13:42:07;;;;;;;10.65;4.60;;;;;;;;;;5044611;28;20021;-61
2023/09/02 13:44:32;;;;;;;11.85;4.95;;;;;;;;;;5033855;28;20477;-62
2023/09/02 13:47:03;;;;;;;8.65;4.22;;;;;;;;;;5033948;28;20056;-62
2023/09/02 13:49:29;;;;;;;6.35;3.13;;;;;;;;;;5037596;28;20021;-62
2023/09/02 13:51:54;;;;;;;7.25;3.83;;;;;;;;;;5035265;28;20047;-62
2023/09/02 13:54:20;;;;;;;11.48;3.95;;;;;;;;;;5039372;28;20032;-62
2023/09/02 13:56:45;;;;;;;7.47;4.13;;;;;;;;;;5043934;28;20032;-62
2023/09/02 13:59:11;;;;;;;5.95;3.38;;;;;;;;;;5044003;28;20017;-62
2023/09/02 14:01:37;;;;;;;8.32;3.50;;;;;;;;;;5040536;28;20040;-62
2023/09/02 14:04:02;;;;;;;8.02;3.70;;;;;;;;;;5053443;28;20478;-62
2023/09/02 14:06:27;;;;;;;8.25;3.70;;;;;;;;;;5047635;28;20474;-62
2023/09/02 14:08:53;;;;;;;6.90;3.00;;;;;;;;;;5037028;28;20051;-64
2023/09/02 14:11:18;;;;;;;6.60;3.85;;;;;;;;;;5034005;28;20029;-62
2023/09/02 14:13:43;;;;;;;8.55;3.70;;;;;;;;;;5034312;28;20389;-62
2023/09/02 14:16:09;;;;;;;7.00;3.50;;;;;;;;;;5047132;28;20025;-64
2023/09/02 14:18:34;;;;;;;4.75;2.30;;;;;;;;;;5047878;28;20017;-63
2023/09/02 14:20:59;;;;;;;4.45;2.42;;;;;;;;;;5048762;28;20017;-65
2023/09/02 14:23:24;;;;;;;4.30;2.40;;;;;;;;;;5053008;28;20045;-63